sensor_id;sensor_type;location;lat;lon;timestamp;P1;durP1;ratioP1;P2;durP2;ratioP2
31680;SDS011;18281;51.364;9.566;2023-05-10T00:01:01;4.20;;;2.50;;
31680;SDS011;18281;51.364;9.566;2023-05-10T00:03:27;2.72;;;2.50;;
31680;SDS011;18281;51.364;9.566;2023-05-10T00:05:53;4.05;;;2.30;;
31680;SDS011;18281;51.364;9.566;2023-05-10T00:08:18;3.15;;;2.90;;
31680;SDS011;18281;51.364;9.566;2023-05-10T00:10:44;7.00;;;2.63;;
31680;SDS011;18281;51.364;9.566;2023-05-10T00:13:10;3.60;;;2.55;;
31680;SDS011;18281;51.364;9.566;2023-05-10T00:15:36;4.35;;;2.80;;
31680;SDS011;18281;51.364;9.566;2023-05-10T00:18:01;2.97;;;2.42;;
31680;SDS011;18281;51.364;9.566;2023-05-10T00:20:26;6.03;;;2.35;;
31680;SDS011;18281;51.364;9.566;2023-05-10T00:22:52;2.60;;;2.40;;
31680;SDS011;18281;51.364;9.566;2023-05-10T00:25:17;3.10;;;2.13;;
31680;SDS011;18281;51.364;9.566;2023-05-10T00:27:42;2.70;;;2.50;;
31680;SDS011;18281;51.364;9.566;2023-05-10T00:30:08;4.40;;;2.42;;
31680;SDS011;18281;51.364;9.566;2023-05-10T00:32:33;2.30;;;2.10;;
31680;SDS011;18281;51.364;9.566;2023-05-10T00:34:59;2.65;;;2.40;;
31680;SDS011;18281;51.364;9.566;2023-05-10T00:37:24;3.00;;;2.17;;
31680;SDS011;18281;51.364;9.566;2023-05-10T00:39:50;3.38;;;2.53;;
31680;SDS011;18281;51.364;9.566;2023-05-10T00:42:15;5.18;;;2.40;;
31680;SDS011;18281;51.364;9.566;2023-05-10T00:44:40;2.72;;;2.50;;
31680;SDS011;18281;51.364;9.566;2023-05-10T00:47:06;2.78;;;2.17;;
31680;SDS011;18281;51.364;9.566;2023-05-10T00:49:32;4.50;;;2.45;;
31680;SDS011;18281;51.364;9.566;2023-05-10T00:51:57;2.60;;;2.40;;
31680;SDS011;18281;51.364;9.566;2023-05-10T00:54:23;2.92;;;2.72;;
31680;SDS011;18281;51.364;9.566;2023-05-10T00:56:48;3.47;;;2.30;;
31680;SDS011;18281;51.364;9.566;2023-05-10T00:59:17;3.38;;;2.17;;
31680;SDS011;18281;51.364;9.566;2023-05-10T01:01:43;4.95;;;2.40;;
31680;SDS011;18281;51.364;9.566;2023-05-10T01:04:10;3.13;;;2.83;;
31680;SDS011;18281;51.364;9.566;2023-05-10T01:06:37;4.05;;;2.42;;
31680;SDS011;18281;51.364;9.566;2023-05-10T01:09:03;3.08;;;2.72;;
31680;SDS011;18281;51.364;9.566;2023-05-10T01:11:29;4.88;;;2.80;;
31680;SDS011;18281;51.364;9.566;2023-05-10T01:13:55;3.10;;;2.42;;
31680;SDS011;18281;51.364;9.566;2023-05-10T01:16:22;2.90;;;2.65;;
31680;SDS011;18281;51.364;9.566;2023-05-10T01:18:50;3.10;;;2.80;;
31680;SDS011;18281;51.364;9.566;2023-05-10T01:27:13;2.97;;;2.78;;
31680;SDS011;18281;51.364;9.566;2023-05-10T01:35:06;2.90;;;2.60;;
31680;SDS011;18281;51.364;9.566;2023-05-10T01:37:56;4.32;;;2.47;;
31680;SDS011;18281;51.364;9.566;2023-05-10T01:40:32;7.03;;;2.55;;
31680;SDS011;18281;51.364;9.566;2023-05-10T01:43:03;3.03;;;2.33;;
31680;SDS011;18281;51.364;9.566;2023-05-10T01:45:31;2.40;;;2.20;;
31680;SDS011;18281;51.364;9.566;2023-05-10T01:48:06;2.28;;;2.00;;
31680;SDS011;18281;51.364;9.566;2023-05-10T01:50:35;3.92;;;1.98;;
31680;SDS011;18281;51.364;9.566;2023-05-10T01:53:04;2.42;;;1.95;;
31680;SDS011;18281;51.364;9.566;2023-05-10T01:55:34;1.98;;;1.88;;
31680;SDS011;18281;51.364;9.566;2023-05-10T01:58:10;2.60;;;1.80;;
31680;SDS011;18281;51.364;9.566;2023-05-10T02:00:45;1.67;;;1.58;;
31680;SDS011;18281;51.364;9.566;2023-05-10T02:03:12;1.45;;;1.35;;
31680;SDS011;18281;51.364;9.566;2023-05-10T02:05:39;1.60;;;1.50;;
31680;SDS011;18281;51.364;9.566;2023-05-10T02:08:09;1.70;;;1.60;;
31680;SDS011;18281;51.364;9.566;2023-05-10T02:10:35;1.60;;;1.40;;
31680;SDS011;18281;51.364;9.566;2023-05-10T02:13:01;1.75;;;1.40;;
31680;SDS011;18281;51.364;9.566;2023-05-10T02:15:28;5.50;;;1.50;;
31680;SDS011;18281;51.364;9.566;2023-05-10T02:17:55;1.90;;;1.52;;
31680;SDS011;18281;51.364;9.566;2023-05-10T02:20:22;1.17;;;1.08;;
31680;SDS011;18281;51.364;9.566;2023-05-10T02:22:49;1.58;;;1.40;;
31680;SDS011;18281;51.364;9.566;2023-05-10T02:25:16;1.70;;;1.50;;
31680;SDS011;18281;51.364;9.566;2023-05-10T02:27:44;1.45;;;1.35;;
31680;SDS011;18281;51.364;9.566;2023-05-10T02:30:11;1.50;;;1.40;;
31680;SDS011;18281;51.364;9.566;2023-05-10T02:32:37;2.75;;;1.60;;
31680;SDS011;18281;51.364;9.566;2023-05-10T02:35:03;2.35;;;1.42;;
31680;SDS011;18281;51.364;9.566;2023-05-10T02:37:30;1.42;;;1.33;;
31680;SDS011;18281;51.364;9.566;2023-05-10T02:39:56;1.30;;;1.23;;
31680;SDS011;18281;51.364;9.566;2023-05-10T02:42:23;1.52;;;1.40;;
31680;SDS011;18281;51.364;9.566;2023-05-10T02:47:19;1.35;;;1.25;;
31680;SDS011;18281;51.364;9.566;2023-05-10T02:49:44;3.47;;;1.20;;
31680;SDS011;18281;51.364;9.566;2023-05-10T02:52:10;3.20;;;1.65;;
31680;SDS011;18281;51.364;9.566;2023-05-10T02:54:43;2.60;;;1.30;;
31680;SDS011;18281;51.364;9.566;2023-05-10T02:57:11;1.20;;;1.10;;
31680;SDS011;18281;51.364;9.566;2023-05-10T02:59:41;1.15;;;1.05;;
31680;SDS011;18281;51.364;9.566;2023-05-10T03:02:08;1.33;;;1.23;;
31680;SDS011;18281;51.364;9.566;2023-05-10T03:04:35;1.65;;;1.55;;
31680;SDS011;18281;51.364;9.566;2023-05-10T03:07:00;4.00;;;1.83;;
31680;SDS011;18281;51.364;9.566;2023-05-10T03:09:26;3.50;;;1.60;;
31680;SDS011;18281;51.364;9.566;2023-05-10T03:11:57;6.60;;;1.90;;
31680;SDS011;18281;51.364;9.566;2023-05-10T03:20:12;1.67;;;1.50;;
31680;SDS011;18281;51.364;9.566;2023-05-10T03:22:50;1.80;;;1.40;;
31680;SDS011;18281;51.364;9.566;2023-05-10T03:25:18;1.60;;;1.50;;
31680;SDS011;18281;51.364;9.566;2023-05-10T03:27:45;1.40;;;1.13;;
31680;SDS011;18281;51.364;9.566;2023-05-10T03:30:12;2.33;;;1.50;;
31680;SDS011;18281;51.364;9.566;2023-05-10T03:32:38;3.67;;;2.08;;
31680;SDS011;18281;51.364;9.566;2023-05-10T03:35:07;6.13;;;2.97;;
31680;SDS011;18281;51.364;9.566;2023-05-10T03:37:34;4.03;;;2.58;;
31680;SDS011;18281;51.364;9.566;2023-05-10T03:39:59;8.85;;;3.90;;
31680;SDS011;18281;51.364;9.566;2023-05-10T03:42:25;6.07;;;3.40;;
31680;SDS011;18281;51.364;9.566;2023-05-10T03:44:50;4.90;;;2.63;;
31680;SDS011;18281;51.364;9.566;2023-05-10T03:47:15;10.85;;;3.00;;
31680;SDS011;18281;51.364;9.566;2023-05-10T03:49:41;5.18;;;2.70;;
31680;SDS011;18281;51.364;9.566;2023-05-10T03:52:06;2.78;;;1.80;;
31680;SDS011;18281;51.364;9.566;2023-05-10T03:54:32;2.88;;;2.13;;
31680;SDS011;18281;51.364;9.566;2023-05-10T03:56:57;2.15;;;1.83;;
31680;SDS011;18281;51.364;9.566;2023-05-10T03:59:22;2.47;;;1.88;;
31680;SDS011;18281;51.364;9.566;2023-05-10T04:01:48;1.60;;;1.25;;
31680;SDS011;18281;51.364;9.566;2023-05-10T04:04:13;2.75;;;1.25;;
31680;SDS011;18281;51.364;9.566;2023-05-10T04:06:38;4.38;;;1.38;;
31680;SDS011;18281;51.364;9.566;2023-05-10T04:09:04;1.52;;;1.30;;
31680;SDS011;18281;51.364;9.566;2023-05-10T04:11:29;1.95;;;1.00;;
31680;SDS011;18281;51.364;9.566;2023-05-10T04:13:54;1.10;;;0.98;;
31680;SDS011;18281;51.364;9.566;2023-05-10T04:16:20;1.35;;;1.05;;
31680;SDS011;18281;51.364;9.566;2023-05-10T04:18:45;1.40;;;1.00;;
31680;SDS011;18281;51.364;9.566;2023-05-10T04:21:11;4.10;;;1.15;;
31680;SDS011;18281;51.364;9.566;2023-05-10T04:23:38;2.03;;;1.10;;
31680;SDS011;18281;51.364;9.566;2023-05-10T04:26:04;1.00;;;1.00;;
31680;SDS011;18281;51.364;9.566;2023-05-10T04:28:29;1.90;;;0.90;;
31680;SDS011;18281;51.364;9.566;2023-05-10T04:31:04;1.27;;;1.02;;
31680;SDS011;18281;51.364;9.566;2023-05-10T04:33:33;1.23;;;0.80;;
31680;SDS011;18281;51.364;9.566;2023-05-10T04:36:00;1.55;;;0.95;;
31680;SDS011;18281;51.364;9.566;2023-05-10T04:38:27;1.20;;;0.70;;
31680;SDS011;18281;51.364;9.566;2023-05-10T04:40:53;2.83;;;0.90;;
31680;SDS011;18281;51.364;9.566;2023-05-10T04:43:18;3.35;;;0.80;;
31680;SDS011;18281;51.364;9.566;2023-05-10T04:45:44;2.08;;;0.90;;
31680;SDS011;18281;51.364;9.566;2023-05-10T04:48:10;0.80;;;0.80;;
31680;SDS011;18281;51.364;9.566;2023-05-10T04:50:35;1.98;;;0.90;;
31680;SDS011;18281;51.364;9.566;2023-05-10T04:53:00;0.90;;;0.80;;
31680;SDS011;18281;51.364;9.566;2023-05-10T04:55:26;1.60;;;0.60;;
31680;SDS011;18281;51.364;9.566;2023-05-10T04:57:52;1.10;;;0.73;;
31680;SDS011;18281;51.364;9.566;2023-05-10T05:00:17;0.70;;;0.70;;
31680;SDS011;18281;51.364;9.566;2023-05-10T05:02:43;1.35;;;0.50;;
31680;SDS011;18281;51.364;9.566;2023-05-10T05:05:12;1.45;;;0.80;;
31680;SDS011;18281;51.364;9.566;2023-05-10T05:07:37;2.42;;;1.70;;
31680;SDS011;18281;51.364;9.566;2023-05-10T05:10:06;4.38;;;2.63;;
31680;SDS011;18281;51.364;9.566;2023-05-10T05:12:33;5.07;;;2.10;;
31680;SDS011;18281;51.364;9.566;2023-05-10T05:14:59;2.22;;;1.35;;
31680;SDS011;18281;51.364;9.566;2023-05-10T05:17:24;1.55;;;1.13;;
31680;SDS011;18281;51.364;9.566;2023-05-10T05:19:49;2.42;;;1.27;;
31680;SDS011;18281;51.364;9.566;2023-05-10T05:22:14;1.05;;;0.73;;
31680;SDS011;18281;51.364;9.566;2023-05-10T05:24:40;1.25;;;0.70;;
31680;SDS011;18281;51.364;9.566;2023-05-10T05:27:05;1.98;;;0.90;;
31680;SDS011;18281;51.364;9.566;2023-05-10T05:29:31;0.80;;;0.80;;
31680;SDS011;18281;51.364;9.566;2023-05-10T05:31:56;0.50;;;0.50;;
31680;SDS011;18281;51.364;9.566;2023-05-10T05:34:22;0.52;;;0.50;;
31680;SDS011;18281;51.364;9.566;2023-05-10T05:36:47;0.47;;;0.45;;
31680;SDS011;18281;51.364;9.566;2023-05-10T05:39:13;0.75;;;0.40;;
31680;SDS011;18281;51.364;9.566;2023-05-10T05:41:38;2.38;;;1.10;;
31680;SDS011;18281;51.364;9.566;2023-05-10T05:44:04;4.72;;;0.90;;
31680;SDS011;18281;51.364;9.566;2023-05-10T05:46:29;0.70;;;0.70;;
31680;SDS011;18281;51.364;9.566;2023-05-10T05:48:55;2.47;;;0.77;;
31680;SDS011;18281;51.364;9.566;2023-05-10T05:51:20;3.00;;;0.70;;
31680;SDS011;18281;51.364;9.566;2023-05-10T05:53:46;0.98;;;0.50;;
31680;SDS011;18281;51.364;9.566;2023-05-10T05:56:11;0.80;;;0.30;;
31680;SDS011;18281;51.364;9.566;2023-05-10T05:58:36;0.47;;;0.45;;
31680;SDS011;18281;51.364;9.566;2023-05-10T06:01:02;1.02;;;0.60;;
31680;SDS011;18281;51.364;9.566;2023-05-10T06:03:27;0.52;;;0.52;;
31680;SDS011;18281;51.364;9.566;2023-05-10T06:05:52;0.50;;;0.50;;
31680;SDS011;18281;51.364;9.566;2023-05-10T06:08:17;0.52;;;0.52;;
31680;SDS011;18281;51.364;9.566;2023-05-10T06:10:43;0.50;;;0.50;;
31680;SDS011;18281;51.364;9.566;2023-05-10T06:13:09;1.15;;;0.43;;
31680;SDS011;18281;51.364;9.566;2023-05-10T06:15:34;2.05;;;0.60;;
31680;SDS011;18281;51.364;9.566;2023-05-10T06:18:00;2.22;;;0.40;;
31680;SDS011;18281;51.364;9.566;2023-05-10T06:20:25;1.25;;;0.57;;
31680;SDS011;18281;51.364;9.566;2023-05-10T06:22:51;6.28;;;0.40;;
31680;SDS011;18281;51.364;9.566;2023-05-10T06:25:16;1.75;;;0.52;;
31680;SDS011;18281;51.364;9.566;2023-05-10T06:27:43;2.00;;;0.47;;
31680;SDS011;18281;51.364;9.566;2023-05-10T06:30:08;0.90;;;0.60;;
31680;SDS011;18281;51.364;9.566;2023-05-10T06:32:34;2.38;;;0.95;;
31680;SDS011;18281;51.364;9.566;2023-05-10T06:35:00;2.67;;;0.98;;
31680;SDS011;18281;51.364;9.566;2023-05-10T06:37:26;4.18;;;0.80;;
31680;SDS011;18281;51.364;9.566;2023-05-10T06:39:51;3.63;;;0.70;;
31680;SDS011;18281;51.364;9.566;2023-05-10T06:42:17;1.67;;;0.70;;
31680;SDS011;18281;51.364;9.566;2023-05-10T06:44:42;2.13;;;0.47;;
31680;SDS011;18281;51.364;9.566;2023-05-10T06:47:08;4.68;;;0.60;;
31680;SDS011;18281;51.364;9.566;2023-05-10T06:49:33;4.00;;;0.60;;
31680;SDS011;18281;51.364;9.566;2023-05-10T06:51:59;2.88;;;0.50;;
31680;SDS011;18281;51.364;9.566;2023-05-10T06:54:24;1.58;;;0.60;;
31680;SDS011;18281;51.364;9.566;2023-05-10T06:56:50;0.77;;;0.20;;
31680;SDS011;18281;51.364;9.566;2023-05-10T06:59:15;2.60;;;0.40;;
31680;SDS011;18281;51.364;9.566;2023-05-10T07:01:41;1.23;;;0.70;;
31680;SDS011;18281;51.364;9.566;2023-05-10T07:04:07;2.47;;;0.43;;
31680;SDS011;18281;51.364;9.566;2023-05-10T07:06:32;1.90;;;0.70;;
31680;SDS011;18281;51.364;9.566;2023-05-10T07:08:58;1.17;;;0.55;;
31680;SDS011;18281;51.364;9.566;2023-05-10T07:11:24;1.00;;;0.40;;
31680;SDS011;18281;51.364;9.566;2023-05-10T07:13:49;1.65;;;0.30;;
31680;SDS011;18281;51.364;9.566;2023-05-10T07:16:14;0.60;;;0.57;;
31680;SDS011;18281;51.364;9.566;2023-05-10T07:18:40;1.63;;;0.50;;
31680;SDS011;18281;51.364;9.566;2023-05-10T07:21:05;0.55;;;0.50;;
31680;SDS011;18281;51.364;9.566;2023-05-10T07:23:31;0.60;;;0.50;;
31680;SDS011;18281;51.364;9.566;2023-05-10T07:25:56;1.38;;;0.50;;
31680;SDS011;18281;51.364;9.566;2023-05-10T07:28:22;3.55;;;0.50;;
31680;SDS011;18281;51.364;9.566;2023-05-10T07:30:49;1.63;;;0.40;;
31680;SDS011;18281;51.364;9.566;2023-05-10T07:33:14;0.63;;;0.30;;
31680;SDS011;18281;51.364;9.566;2023-05-10T07:35:40;0.68;;;0.40;;
31680;SDS011;18281;51.364;9.566;2023-05-10T07:38:06;1.08;;;0.45;;
31680;SDS011;18281;51.364;9.566;2023-05-10T07:40:31;2.67;;;0.47;;
31680;SDS011;18281;51.364;9.566;2023-05-10T07:42:57;0.90;;;0.30;;
31680;SDS011;18281;51.364;9.566;2023-05-10T07:45:22;0.60;;;0.45;;
31680;SDS011;18281;51.364;9.566;2023-05-10T07:47:48;2.30;;;0.50;;
31680;SDS011;18281;51.364;9.566;2023-05-10T07:50:14;2.33;;;0.47;;
31680;SDS011;18281;51.364;9.566;2023-05-10T07:52:39;1.27;;;0.50;;
31680;SDS011;18281;51.364;9.566;2023-05-10T07:55:05;1.17;;;0.30;;
31680;SDS011;18281;51.364;9.566;2023-05-10T07:57:32;1.33;;;0.40;;
31680;SDS011;18281;51.364;9.566;2023-05-10T07:59:57;0.77;;;0.32;;
31680;SDS011;18281;51.364;9.566;2023-05-10T08:02:23;2.25;;;0.32;;
31680;SDS011;18281;51.364;9.566;2023-05-10T08:04:48;2.05;;;0.47;;
31680;SDS011;18281;51.364;9.566;2023-05-10T08:07:13;0.30;;;0.30;;
31680;SDS011;18281;51.364;9.566;2023-05-10T08:09:39;0.93;;;0.20;;
31680;SDS011;18281;51.364;9.566;2023-05-10T08:12:04;0.40;;;0.20;;
31680;SDS011;18281;51.364;9.566;2023-05-10T08:14:30;0.32;;;0.25;;
31680;SDS011;18281;51.364;9.566;2023-05-10T08:16:55;0.85;;;0.50;;
31680;SDS011;18281;51.364;9.566;2023-05-10T08:19:21;0.77;;;0.20;;
31680;SDS011;18281;51.364;9.566;2023-05-10T08:21:47;0.73;;;0.17;;
31680;SDS011;18281;51.364;9.566;2023-05-10T08:24:13;2.67;;;0.20;;
31680;SDS011;18281;51.364;9.566;2023-05-10T08:26:38;0.68;;;0.38;;
31680;SDS011;18281;51.364;9.566;2023-05-10T08:29:04;1.02;;;0.45;;
31680;SDS011;18281;51.364;9.566;2023-05-10T08:31:29;0.73;;;0.20;;
31680;SDS011;18281;51.364;9.566;2023-05-10T08:33:55;0.73;;;0.25;;
31680;SDS011;18281;51.364;9.566;2023-05-10T08:36:20;1.15;;;0.20;;
31680;SDS011;18281;51.364;9.566;2023-05-10T08:38:50;2.45;;;0.50;;
31680;SDS011;18281;51.364;9.566;2023-05-10T08:41:17;0.20;;;0.20;;
31680;SDS011;18281;51.364;9.566;2023-05-10T08:43:45;0.20;;;0.20;;
31680;SDS011;18281;51.364;9.566;2023-05-10T08:46:11;0.93;;;0.20;;
31680;SDS011;18281;51.364;9.566;2023-05-10T08:48:42;0.68;;;0.30;;
31680;SDS011;18281;51.364;9.566;2023-05-10T08:51:09;0.65;;;0.25;;
31680;SDS011;18281;51.364;9.566;2023-05-10T08:53:37;0.90;;;0.20;;
31680;SDS011;18281;51.364;9.566;2023-05-10T08:56:03;1.10;;;0.30;;
31680;SDS011;18281;51.364;9.566;2023-05-10T08:58:29;1.25;;;0.47;;
31680;SDS011;18281;51.364;9.566;2023-05-10T09:00:55;1.60;;;0.52;;
31680;SDS011;18281;51.364;9.566;2023-05-10T09:03:22;1.38;;;0.80;;
31680;SDS011;18281;51.364;9.566;2023-05-10T09:05:48;0.80;;;0.65;;
31680;SDS011;18281;51.364;9.566;2023-05-10T09:08:14;0.70;;;0.65;;
31680;SDS011;18281;51.364;9.566;2023-05-10T09:10:41;1.15;;;0.80;;
31680;SDS011;18281;51.364;9.566;2023-05-10T09:13:08;1.65;;;0.85;;
31680;SDS011;18281;51.364;9.566;2023-05-10T09:15:35;1.35;;;0.73;;
31680;SDS011;18281;51.364;9.566;2023-05-10T09:18:00;2.30;;;0.82;;
31680;SDS011;18281;51.364;9.566;2023-05-10T09:20:27;3.35;;;0.85;;
31680;SDS011;18281;51.364;9.566;2023-05-10T09:22:52;1.45;;;0.70;;
31680;SDS011;18281;51.364;9.566;2023-05-10T09:25:19;0.90;;;0.70;;
31680;SDS011;18281;51.364;9.566;2023-05-10T09:27:45;0.63;;;0.50;;
31680;SDS011;18281;51.364;9.566;2023-05-10T09:30:15;4.28;;;0.60;;
31680;SDS011;18281;51.364;9.566;2023-05-10T09:32:43;1.15;;;0.50;;
31680;SDS011;18281;51.364;9.566;2023-05-10T09:35:10;0.75;;;0.55;;
31680;SDS011;18281;51.364;9.566;2023-05-10T09:37:42;1.85;;;0.43;;
31680;SDS011;18281;51.364;9.566;2023-05-10T09:40:13;0.68;;;0.63;;
31680;SDS011;18281;51.364;9.566;2023-05-10T09:42:44;0.50;;;0.50;;
31680;SDS011;18281;51.364;9.566;2023-05-10T09:45:34;0.47;;;0.47;;
31680;SDS011;18281;51.364;9.566;2023-05-10T09:48:00;3.03;;;0.70;;
31680;SDS011;18281;51.364;9.566;2023-05-10T09:50:28;0.63;;;0.63;;
31680;SDS011;18281;51.364;9.566;2023-05-10T09:52:58;1.40;;;0.90;;
31680;SDS011;18281;51.364;9.566;2023-05-10T09:55:43;0.63;;;0.55;;
31680;SDS011;18281;51.364;9.566;2023-05-10T09:58:11;0.75;;;0.60;;
31680;SDS011;18281;51.364;9.566;2023-05-10T10:00:37;0.50;;;0.50;;
31680;SDS011;18281;51.364;9.566;2023-05-10T10:03:12;1.40;;;0.70;;
31680;SDS011;18281;51.364;9.566;2023-05-10T10:05:41;0.68;;;0.60;;
31680;SDS011;18281;51.364;9.566;2023-05-10T10:08:09;2.38;;;0.60;;
31680;SDS011;18281;51.364;9.566;2023-05-10T10:10:34;1.88;;;0.80;;
31680;SDS011;18281;51.364;9.566;2023-05-10T10:13:00;0.80;;;0.73;;
31680;SDS011;18281;51.364;9.566;2023-05-10T10:15:26;3.47;;;0.70;;
31680;SDS011;18281;51.364;9.566;2023-05-10T10:17:52;0.90;;;0.85;;
31680;SDS011;18281;51.364;9.566;2023-05-10T10:20:19;0.88;;;0.88;;
31680;SDS011;18281;51.364;9.566;2023-05-10T10:22:46;0.85;;;0.70;;
31680;SDS011;18281;51.364;9.566;2023-05-10T10:25:14;1.50;;;0.90;;
31680;SDS011;18281;51.364;9.566;2023-05-10T10:27:43;2.33;;;1.00;;
31680;SDS011;18281;51.364;9.566;2023-05-10T10:36:02;2.03;;;1.10;;
31680;SDS011;18281;51.364;9.566;2023-05-10T10:41:10;1.30;;;1.30;;
31680;SDS011;18281;51.364;9.566;2023-05-10T10:44:20;1.55;;;1.45;;
31680;SDS011;18281;51.364;9.566;2023-05-10T10:49:23;2.70;;;1.55;;
31680;SDS011;18281;51.364;9.566;2023-05-10T10:54:39;1.38;;;1.27;;
31680;SDS011;18281;51.364;9.566;2023-05-10T10:57:14;1.73;;;1.08;;
31680;SDS011;18281;51.364;9.566;2023-05-10T10:59:43;1.50;;;1.20;;
31680;SDS011;18281;51.364;9.566;2023-05-10T11:05:00;1.83;;;1.52;;
31680;SDS011;18281;51.364;9.566;2023-05-10T11:07:55;2.05;;;1.80;;
31680;SDS011;18281;51.364;9.566;2023-05-10T11:10:22;2.90;;;1.80;;
31680;SDS011;18281;51.364;9.566;2023-05-10T11:13:07;2.88;;;2.10;;
31680;SDS011;18281;51.364;9.566;2023-05-10T11:15:40;3.70;;;2.22;;
31680;SDS011;18281;51.364;9.566;2023-05-10T11:18:19;6.13;;;2.40;;
31680;SDS011;18281;51.364;9.566;2023-05-10T11:20:51;2.25;;;2.05;;
31680;SDS011;18281;51.364;9.566;2023-05-10T11:26:06;4.68;;;2.22;;
31680;SDS011;18281;51.364;9.566;2023-05-10T11:28:34;8.75;;;2.70;;
31680;SDS011;18281;51.364;9.566;2023-05-10T11:31:00;3.45;;;2.40;;
31680;SDS011;18281;51.364;9.566;2023-05-10T11:33:25;4.10;;;2.53;;
31680;SDS011;18281;51.364;9.566;2023-05-10T11:35:50;4.70;;;2.60;;
31680;SDS011;18281;51.364;9.566;2023-05-10T11:38:16;4.43;;;2.38;;
31680;SDS011;18281;51.364;9.566;2023-05-10T11:40:41;6.47;;;2.30;;
31680;SDS011;18281;51.364;9.566;2023-05-10T11:43:08;4.40;;;2.40;;
31680;SDS011;18281;51.364;9.566;2023-05-10T11:45:35;5.63;;;2.20;;
31680;SDS011;18281;51.364;9.566;2023-05-10T11:48:01;2.90;;;2.30;;
31680;SDS011;18281;51.364;9.566;2023-05-10T11:50:27;3.47;;;2.45;;
31680;SDS011;18281;51.364;9.566;2023-05-10T11:52:53;2.78;;;2.33;;
31680;SDS011;18281;51.364;9.566;2023-05-10T11:55:20;7.60;;;2.58;;
31680;SDS011;18281;51.364;9.566;2023-05-10T11:57:45;3.40;;;2.35;;
31680;SDS011;18281;51.364;9.566;2023-05-10T12:00:14;2.03;;;1.92;;
31680;SDS011;18281;51.364;9.566;2023-05-10T12:02:39;2.83;;;2.53;;
31680;SDS011;18281;51.364;9.566;2023-05-10T12:05:05;8.32;;;3.00;;
31680;SDS011;18281;51.364;9.566;2023-05-10T12:07:32;6.22;;;2.70;;
31680;SDS011;18281;51.364;9.566;2023-05-10T12:12:42;2.97;;;2.55;;
31680;SDS011;18281;51.364;9.566;2023-05-10T12:17:48;3.58;;;2.80;;
31680;SDS011;18281;51.364;9.566;2023-05-10T12:22:40;4.22;;;2.85;;
31680;SDS011;18281;51.364;9.566;2023-05-10T12:25:07;2.60;;;2.33;;
31680;SDS011;18281;51.364;9.566;2023-05-10T12:27:33;2.85;;;2.65;;
31680;SDS011;18281;51.364;9.566;2023-05-10T12:29:59;3.83;;;3.13;;
31680;SDS011;18281;51.364;9.566;2023-05-10T12:32:37;3.72;;;2.22;;
31680;SDS011;18281;51.364;9.566;2023-05-10T12:35:03;3.45;;;2.78;;
31680;SDS011;18281;51.364;9.566;2023-05-10T12:37:29;4.57;;;2.50;;
31680;SDS011;18281;51.364;9.566;2023-05-10T12:39:54;3.05;;;2.83;;
31680;SDS011;18281;51.364;9.566;2023-05-10T12:42:19;3.05;;;2.60;;
31680;SDS011;18281;51.364;9.566;2023-05-10T12:44:45;3.08;;;2.78;;
31680;SDS011;18281;51.364;9.566;2023-05-10T12:47:11;3.55;;;3.00;;
31680;SDS011;18281;51.364;9.566;2023-05-10T12:49:36;5.18;;;3.15;;
31680;SDS011;18281;51.364;9.566;2023-05-10T12:52:01;7.38;;;4.22;;
31680;SDS011;18281;51.364;9.566;2023-05-10T12:54:27;9.18;;;4.18;;
31680;SDS011;18281;51.364;9.566;2023-05-10T12:56:52;9.65;;;4.85;;
31680;SDS011;18281;51.364;9.566;2023-05-10T12:59:18;9.95;;;4.60;;
31680;SDS011;18281;51.364;9.566;2023-05-10T13:01:43;7.85;;;4.72;;
31680;SDS011;18281;51.364;9.566;2023-05-10T13:04:08;8.68;;;4.22;;
31680;SDS011;18281;51.364;9.566;2023-05-10T13:06:34;6.80;;;4.10;;
31680;SDS011;18281;51.364;9.566;2023-05-10T13:09:00;7.90;;;3.78;;
31680;SDS011;18281;51.364;9.566;2023-05-10T13:11:25;8.57;;;3.83;;
31680;SDS011;18281;51.364;9.566;2023-05-10T13:13:51;5.57;;;3.33;;
31680;SDS011;18281;51.364;9.566;2023-05-10T13:16:16;5.38;;;3.35;;
31680;SDS011;18281;51.364;9.566;2023-05-10T13:18:42;7.05;;;3.65;;
31680;SDS011;18281;51.364;9.566;2023-05-10T13:21:07;6.22;;;3.30;;
31680;SDS011;18281;51.364;9.566;2023-05-10T13:23:33;13.55;;;3.80;;
31680;SDS011;18281;51.364;9.566;2023-05-10T13:25:59;5.80;;;3.17;;
31680;SDS011;18281;51.364;9.566;2023-05-10T13:28:24;6.07;;;3.08;;
31680;SDS011;18281;51.364;9.566;2023-05-10T13:30:51;7.43;;;3.20;;
31680;SDS011;18281;51.364;9.566;2023-05-10T13:33:16;24.45;;;3.72;;
31680;SDS011;18281;51.364;9.566;2023-05-10T13:35:42;9.32;;;4.10;;
31680;SDS011;18281;51.364;9.566;2023-05-10T13:38:07;12.13;;;3.15;;
31680;SDS011;18281;51.364;9.566;2023-05-10T13:40:33;8.35;;;3.58;;
31680;SDS011;18281;51.364;9.566;2023-05-10T13:42:58;6.63;;;3.25;;
31680;SDS011;18281;51.364;9.566;2023-05-10T13:45:24;5.57;;;2.65;;
31680;SDS011;18281;51.364;9.566;2023-05-10T13:47:49;11.85;;;3.13;;
31680;SDS011;18281;51.364;9.566;2023-05-10T13:50:14;6.50;;;2.55;;
31680;SDS011;18281;51.364;9.566;2023-05-10T13:52:40;5.35;;;2.72;;
31680;SDS011;18281;51.364;9.566;2023-05-10T13:55:05;5.60;;;2.53;;
31680;SDS011;18281;51.364;9.566;2023-05-10T13:57:31;8.73;;;2.25;;
31680;SDS011;18281;51.364;9.566;2023-05-10T13:59:56;5.82;;;2.47;;
31680;SDS011;18281;51.364;9.566;2023-05-10T14:02:22;2.97;;;2.03;;
31680;SDS011;18281;51.364;9.566;2023-05-10T14:04:47;5.13;;;2.20;;
31680;SDS011;18281;51.364;9.566;2023-05-10T14:07:13;2.80;;;1.70;;
31680;SDS011;18281;51.364;9.566;2023-05-10T14:09:38;2.88;;;1.95;;
31680;SDS011;18281;51.364;9.566;2023-05-10T14:12:04;2.83;;;1.77;;
31680;SDS011;18281;51.364;9.566;2023-05-10T14:14:29;2.70;;;1.90;;
31680;SDS011;18281;51.364;9.566;2023-05-10T14:16:54;3.40;;;1.55;;
31680;SDS011;18281;51.364;9.566;2023-05-10T14:19:20;2.58;;;1.50;;
31680;SDS011;18281;51.364;9.566;2023-05-10T14:21:45;4.72;;;1.83;;
31680;SDS011;18281;51.364;9.566;2023-05-10T14:24:10;5.18;;;1.60;;
31680;SDS011;18281;51.364;9.566;2023-05-10T14:26:36;3.63;;;2.10;;
31680;SDS011;18281;51.364;9.566;2023-05-10T14:29:02;1.63;;;1.50;;
31680;SDS011;18281;51.364;9.566;2023-05-10T14:31:27;3.67;;;1.80;;
31680;SDS011;18281;51.364;9.566;2023-05-10T14:33:55;2.67;;;1.73;;
31680;SDS011;18281;51.364;9.566;2023-05-10T14:36:20;3.05;;;1.75;;
31680;SDS011;18281;51.364;9.566;2023-05-10T14:38:46;1.73;;;1.63;;
31680;SDS011;18281;51.364;9.566;2023-05-10T14:41:11;4.82;;;1.63;;
31680;SDS011;18281;51.364;9.566;2023-05-10T14:43:39;5.68;;;1.98;;
31680;SDS011;18281;51.364;9.566;2023-05-10T14:46:05;3.55;;;1.70;;
31680;SDS011;18281;51.364;9.566;2023-05-10T14:48:30;1.63;;;1.48;;
31680;SDS011;18281;51.364;9.566;2023-05-10T14:50:55;1.70;;;1.60;;
31680;SDS011;18281;51.364;9.566;2023-05-10T14:53:21;1.42;;;1.33;;
31680;SDS011;18281;51.364;9.566;2023-05-10T14:55:46;1.27;;;1.20;;
31680;SDS011;18281;51.364;9.566;2023-05-10T14:58:12;1.80;;;1.42;;
31680;SDS011;18281;51.364;9.566;2023-05-10T15:00:37;2.50;;;1.45;;
31680;SDS011;18281;51.364;9.566;2023-05-10T15:03:02;3.47;;;1.20;;
31680;SDS011;18281;51.364;9.566;2023-05-10T15:05:28;4.75;;;1.70;;
31680;SDS011;18281;51.364;9.566;2023-05-10T15:07:53;1.38;;;1.10;;
31680;SDS011;18281;51.364;9.566;2023-05-10T15:10:19;1.55;;;1.20;;
31680;SDS011;18281;51.364;9.566;2023-05-10T15:12:44;1.33;;;1.17;;
31680;SDS011;18281;51.364;9.566;2023-05-10T15:15:10;1.23;;;1.13;;
31680;SDS011;18281;51.364;9.566;2023-05-10T15:17:35;1.83;;;1.10;;
31680;SDS011;18281;51.364;9.566;2023-05-10T15:20:01;3.85;;;1.10;;
31680;SDS011;18281;51.364;9.566;2023-05-10T15:22:28;1.40;;;1.10;;
31680;SDS011;18281;51.364;9.566;2023-05-10T15:24:54;1.45;;;1.10;;
31680;SDS011;18281;51.364;9.566;2023-05-10T15:27:19;2.15;;;1.17;;
31680;SDS011;18281;51.364;9.566;2023-05-10T15:29:45;1.33;;;1.15;;
31680;SDS011;18281;51.364;9.566;2023-05-10T15:32:10;2.22;;;1.55;;